x

North Channel East (45154) Wave Buoy

12:00pm - Sat 1st Aug 2015 All times are CDT. -5 hours from GMT.

  • Sig Wave height 1.3ft
  • Peak Period 3s
  • Wind
    13mph, 16mph gusts
  • Sea Temp 66°f
  • Air Temp 64°f
  • Sea Pressure 1009.5mb
  • North Channel East
  • North Channel East

More Historic Weather Station data

Upgrade to MSW Pro to gain access to the past 30 days of data for over 8000 Wavebouys and Weather Stations around the globe.

Join Pro

Comparision Forecast

View Surf forecast
   
Sat 08/01 12:00pm 1.3ft 3s 13 16 mph 1009.5mb 66f 64f
11:00am 1.6ft 4s 13 16 mph 1009.8mb 66f 63f
9:00am 1.6ft 4s 16 18 mph 1009.6mb 66f 61f
8:00am 1.6ft 3s 16 18 mph 1009.8mb 66f 61f
7:00am 1.3ft 3s 16 18 mph 1009.7mb 65f 60f
6:00am 1.3ft 3s 16 18 mph 1009.5mb 65f 60f
4:00am 1.6ft 4s 11 13 mph 1009mb 65f 60f
3:00am 2ft 4s 13 16 mph 1008.8mb 65f 60f
2:00am 2.5ft 4s 16 18 mph 1008.8mb 65f 61f
1:00am 2.5ft 4s 18 20 mph 1008.9mb 65f 61f
12:00am 2.5ft 5s 20 22 mph 1009.1mb 65f 62f
Fri 07/31 9:00pm 4ft 5s 20 22 mph 1008.7mb 65f 63f
7:00pm 3.5ft 5s 22 27 mph 1007.7mb 66f 66f
5:00pm 3.5ft 4s 25 29 mph 1007.1mb 66f 67f
4:00pm 3ft 4s 22 27 mph 1006.8mb 66f 68f
3:00pm 2.5ft 4s 22 27 mph 1006.7mb 66f 69f
2:00pm 2ft 4s 20 22 mph 1006.7mb 66f 68f
12:00pm 1.6ft 3s 16 20 mph 1007.8mb 66f 67f
11:00am 1.6ft 3s 16 18 mph 1008.1mb 66f 65f
9:00am 2ft 3s 16 18 mph 1008.4mb 66f 64f
8:00am 1.6ft 3s 18 22 mph 1008.6mb 66f 65f
7:00am 1.6ft 3s 11 13 mph 1008.8mb 66f 65f
6:00am 1.6ft 3s 13 16 mph 1008.7mb 66f 66f
4:00am 1.6ft 3s 20 25 mph 1008.7mb 66f 66f
3:00am 1.6ft 3s 16 18 mph 1009mb 66f 66f
2:00am 1ft 2s 13 18 mph 1009.2mb 66f 66f
1:00am 1ft 4s 9 13 mph 1009.5mb 66f 66f
12:00am 1.3ft 4s 7
mph
1010.1mb 66f 66f
Thu 07/30 10:00pm 2.5ft 5s 7 11 mph 1010.5mb 66f 66f
9:00pm 3.5ft 5s 11 13 mph 1010.6mb 66f 66f
8:00pm 3.5ft 5s 16 20 mph 1010.6mb 66f 66f
7:00pm 3.5ft 5s 22 27 mph 1010mb 67f 67f
6:00pm 3.5ft 5s 22 29 mph 1009.9mb 67f 67f
5:00pm 4ft 5s 18 22 mph 1009.8mb 67f 67f
4:00pm 4ft 5s 22 27 mph 1009.5mb 67f 67f
3:00pm 4.5ft 5s 22 29 mph 1009.2mb 67f 67f
2:00pm 4.5ft 5s 22 29 mph 1009mb 67f 67f
12:00pm 3.5ft 4s 27 31 mph 1008.4mb 67f 67f
11:00am 2.5ft 4s 25 31 mph 1007.7mb 67f 69f
10:00am 2ft 4s 16 20 mph 1007.6mb 67f 69f
9:00am 2.5ft 4s 18 20 mph 1007.5mb 67f 69f
8:00am 2.5ft 4s 20 25 mph 1007.7mb 67f 69f
7:00am 1.6ft 3s 22 27 mph 1007.3mb 68f 70f
6:00am 1.6ft 3s 16 18 mph 1006.9mb 68f 69f
5:00am 1.6ft 3s 18 20 mph 1006.8mb 69f 69f
4:00am 1.3ft 2s 18 20 mph 1006.8mb 69f 68f
3:00am 1ft 3s 9 11 mph 1007.1mb 69f 68f
2:00am 1ft 4s 11 16 mph 1007.2mb 69f 69f
1:00am 1ft 4s 9 11 mph 1007.8mb 69f 68f
12:00am 1ft 4s 9 11 mph 1008.3mb 69f 69f
Wed 07/29 11:00pm 1.6ft 4s 9 11 mph 1008.3mb 69f 69f
10:00pm 2ft 4s 13 18 mph 1008.1mb 69f 70f
9:00pm 2.5ft 4s 13 16 mph 1007.9mb 69f 71f
8:00pm 1ft 3s 16 18 mph 1007.4mb 70f 73f
7:00pm 0.7ft 2s 13 16 mph 1007.6mb 70f 73f
6:00pm 0.7ft 2s 11 13 mph 1007.6mb 70f 73f
5:00pm 1ft 3s 7 9 mph 1007.5mb 70f 73f
4:00pm 1.3ft 3s 11 13 mph 1007.7mb 70f 72f
3:00pm 1.6ft 3s 13 18 mph 1007.9mb 70f 72f
2:00pm 1.6ft 3s 16 20 mph 1008.4mb 71f 73f
1:00pm 1.3ft 3s 16 18 mph 1008.7mb 71f 74f
12:00pm 1.3ft 2s 18 22 mph 1009.2mb 71f 76f
10:00am 0.7ft 2s 11 13 mph 1011mb 71f 76f
9:00am 0.7ft 2s 7 9 mph 1011.2mb 70f 74f
8:00am 0.7ft 2s 9 11 mph 1011.8mb 70f 73f
7:00am 0.7ft 2s 9 11 mph 1012mb 70f 71f
6:00am 0.7ft 2s 9 11 mph 1012.1mb 70f 71f
5:00am 0.7ft 2s 11 13 mph 1012.4mb 70f 72f
4:00am 0.3ft 2s 9 11 mph 1012.1mb 70f 72f
3:00am 0.7ft 2s 7 9 mph 1012.8mb 70f 72f
2:00am 0.7ft 2s 9 11 mph 1013.6mb 70f 73f
1:00am 0.7ft 2s 7
mph
1014.1mb 70f 72f
12:00am 0.7ft 2s 4 7 mph 1014.2mb 70f 73f
Tue 07/28 11:00pm 0.7ft 2s 2
mph
1014.6mb 71f 73f
10:00pm 0.3ft 2s 7 9 mph 1014.4mb 72f 73f
9:00pm 0.3ft 2s 9
mph
1014.1mb 72f 74f
8:00pm 0.3ft 2s 9 11 mph 1014.1mb 72f 75f
7:00pm  -  2s 7 9 mph 1013.8mb 72f 76f